Time;durP1;ratioP1;P1;durP2;ratioP2;P2;SDS_P1;SDS_P2;PMS_P1;PMS_P2;Temp;Humidity;BMP_temperature;BMP_pressure;BME280_temperature;BME280_humidity;BME280_pressure;Samples;Min_cycle;Max_cycle;Signal;HPM_P1;HPM_P2
2021/01/22 00:02:14;;;;;;;11.38;1.90;;;;;;;;;;5050808;28;20533;-78
2021/01/22 00:04:41;;;;;;;8.98;2.08;;;;;;;;;;5037837;28;20033;-79
2021/01/22 00:07:08;;;;;;;6.32;1.50;;;;;;;;;;5071475;28;20082;-78
2021/01/22 00:09:35;;;;;;;11.00;1.95;;;;;;;;;;5031275;28;20033;-79
2021/01/22 00:12:02;;;;;;;5.35;1.13;;;;;;;;;;5031585;28;20089;-78
2021/01/22 00:14:29;;;;;;;7.45;1.65;;;;;;;;;;5046056;28;20029;-78
2021/01/22 00:16:56;;;;;;;6.72;1.67;;;;;;;;;;5054892;28;20037;-78
2021/01/22 00:19:23;;;;;;;6.00;1.70;;;;;;;;;;5054306;22;20109;-78
2021/01/22 00:21:50;;;;;;;4.35;1.60;;;;;;;;;;5115303;28;20343;-78
2021/01/22 00:24:18;;;;;;;8.57;2.28;;;;;;;;;;5113910;28;20028;-78
2021/01/22 00:26:45;;;;;;;5.60;1.15;;;;;;;;;;5115606;28;20407;-78
2021/01/22 00:29:12;;;;;;;5.38;1.45;;;;;;;;;;5112313;28;20019;-78
2021/01/22 00:31:39;;;;;;;8.75;2.17;;;;;;;;;;5115588;28;20015;-78
2021/01/22 00:34:06;;;;;;;12.02;2.17;;;;;;;;;;5113022;28;20030;-78
2021/01/22 00:36:33;;;;;;;9.63;2.67;;;;;;;;;;5115458;28;20479;-78
2021/01/22 00:39:00;;;;;;;11.43;1.80;;;;;;;;;;5113347;28;20046;-78
2021/01/22 00:41:30;;;;;;;8.23;2.13;;;;;;;;;;5115327;28;20027;-78
2021/01/22 00:43:57;;;;;;;14.35;3.22;;;;;;;;;;5110606;28;20097;-78
2021/01/22 00:46:24;;;;;;;11.82;2.40;;;;;;;;;;5114636;28;20028;-78
2021/01/22 00:48:52;;;;;;;11.88;2.15;;;;;;;;;;5113372;28;20045;-78
2021/01/22 00:51:19;;;;;;;14.82;3.15;;;;;;;;;;5095487;28;20085;-78
2021/01/22 00:53:46;;;;;;;11.30;2.92;;;;;;;;;;5114305;27;20024;-78
2021/01/22 00:56:13;;;;;;;11.27;2.50;;;;;;;;;;5114824;28;20015;-78
2021/01/22 00:58:40;;;;;;;10.77;2.38;;;;;;;;;;5110590;28;20026;-78
2021/01/22 01:01:07;;;;;;;9.18;2.75;;;;;;;;;;5114727;28;20030;-79
2021/01/22 01:03:34;;;;;;;7.80;1.70;;;;;;;;;;5112834;28;20031;-78
2021/01/22 01:06:01;;;;;;;13.30;2.60;;;;;;;;;;5111771;28;20038;-78
2021/01/22 01:08:28;;;;;;;8.52;2.53;;;;;;;;;;5112339;28;20111;-79
2021/01/22 01:10:55;;;;;;;8.13;2.33;;;;;;;;;;5114281;28;20027;-78
2021/01/22 01:13:22;;;;;;;10.73;3.00;;;;;;;;;;5112807;28;20031;-79
2021/01/22 01:15:50;;;;;;;7.72;2.08;;;;;;;;;;5114662;28;20024;-79
2021/01/22 01:18:17;;;;;;;11.27;2.83;;;;;;;;;;5112183;28;20035;-79
2021/01/22 01:20:44;;;;;;;8.85;2.35;;;;;;;;;;5117471;22;20057;-79
2021/01/22 01:23:14;;;;;;;11.40;3.50;;;;;;;;;;5101836;22;20045;31
2021/01/22 01:25:44;;;;;;;9.15;2.22;;;;;;;;;;5071574;28;20178;-82
2021/01/22 01:28:12;;;;;;;10.27;2.97;;;;;;;;;;5078673;22;20074;-77
2021/01/22 01:30:39;;;;;;;13.40;2.95;;;;;;;;;;5073666;28;20020;-81
2021/01/22 01:33:06;;;;;;;7.88;1.60;;;;;;;;;;5071338;28;20024;-81
2021/01/22 01:35:33;;;;;;;9.50;2.38;;;;;;;;;;5073849;28;20029;-79
2021/01/22 01:38:00;;;;;;;14.90;2.72;;;;;;;;;;5089931;22;20060;-80
2021/01/22 01:40:27;;;;;;;17.85;3.53;;;;;;;;;;5061229;28;20033;-80
2021/01/22 01:42:54;;;;;;;12.23;2.85;;;;;;;;;;5067717;28;20447;-79
2021/01/22 01:45:22;;;;;;;8.10;2.70;;;;;;;;;;5072899;28;20071;-80
2021/01/22 01:47:49;;;;;;;13.02;3.22;;;;;;;;;;5071287;28;20028;-79
2021/01/22 01:50:16;;;;;;;17.67;3.33;;;;;;;;;;5075678;28;20081;-79
2021/01/22 01:52:43;;;;;;;13.48;2.88;;;;;;;;;;5084413;28;20021;-78
2021/01/22 01:55:11;;;;;;;16.02;3.72;;;;;;;;;;5143225;22;20112;-79
2021/01/22 01:57:38;;;;;;;12.27;3.15;;;;;;;;;;5132144;27;20038;-80
2021/01/22 02:00:06;;;;;;;12.43;2.70;;;;;;;;;;5121340;27;20498;-79
2021/01/22 02:02:33;;;;;;;11.27;2.30;;;;;;;;;;5111596;28;20026;-79
2021/01/22 02:05:00;;;;;;;12.77;3.10;;;;;;;;;;5113809;28;20070;-79
2021/01/22 02:07:27;;;;;;;8.70;2.60;;;;;;;;;;5112322;28;20030;-78
2021/01/22 02:09:54;;;;;;;12.88;2.85;;;;;;;;;;5113423;28;20479;-79
2021/01/22 02:12:22;;;;;;;9.23;1.98;;;;;;;;;;5111691;28;20442;-79
2021/01/22 02:14:49;;;;;;;9.40;2.17;;;;;;;;;;5095169;28;20023;-79
2021/01/22 02:17:16;;;;;;;9.00;2.22;;;;;;;;;;5112142;28;20023;-80
2021/01/22 02:19:50;;;;;;;13.82;2.83;;;;;;;;;;5113041;28;20030;-79
2021/01/22 02:22:17;;;;;;;11.73;2.75;;;;;;;;;;5109433;28;20492;-80
2021/01/22 02:24:44;;;;;;;11.93;3.17;;;;;;;;;;5112741;28;20043;-80
2021/01/22 02:27:11;;;;;;;10.20;2.53;;;;;;;;;;5102711;22;20048;-79
2021/01/22 02:29:38;;;;;;;11.43;2.58;;;;;;;;;;5071701;28;20028;-80
2021/01/22 02:32:07;;;;;;;10.57;2.67;;;;;;;;;;5072645;28;20047;-79
2021/01/22 02:34:37;;;;;;;8.57;2.25;;;;;;;;;;5046949;28;20036;-80
2021/01/22 02:37:05;;;;;;;8.52;2.13;;;;;;;;;;5051814;28;20021;-80
2021/01/22 02:39:36;;;;;;;10.43;2.67;;;;;;;;;;5052324;28;20036;-80
2021/01/22 02:42:04;;;;;;;11.45;2.58;;;;;;;;;;5032390;28;20029;-79
2021/01/22 02:44:32;;;;;;;10.18;2.72;;;;;;;;;;5068221;28;20051;-80
2021/01/22 02:47:00;;;;;;;13.45;2.78;;;;;;;;;;5072449;28;20033;-81
2021/01/22 02:49:28;;;;;;;12.80;3.15;;;;;;;;;;5067985;28;20024;-80
2021/01/22 02:51:55;;;;;;;9.63;2.45;;;;;;;;;;5072213;28;20025;-79
2021/01/22 02:54:22;;;;;;;10.68;2.92;;;;;;;;;;5068466;28;20044;-80
2021/01/22 02:56:52;;;;;;;11.57;2.40;;;;;;;;;;5069628;28;20050;-80
2021/01/22 02:59:46;;;;;;;10.88;3.42;;;;;;;;;;5047703;28;20057;-79
2021/01/22 03:02:31;;;;;;;11.77;2.47;;;;;;;;;;5048371;28;20035;-80
2021/01/22 03:04:59;;;;;;;10.43;2.72;;;;;;;;;;5032343;28;20068;-79
2021/01/22 03:07:55;;;;;;;10.75;2.95;;;;;;;;;;5032684;28;20447;-79
2021/01/22 03:10:23;;;;;;;11.18;3.15;;;;;;;;;;5050932;28;20032;-79
2021/01/22 03:12:52;;;;;;;10.68;2.50;;;;;;;;;;5067806;28;20493;-80
2021/01/22 03:15:22;;;;;;;11.95;2.65;;;;;;;;;;5072178;28;20074;-80
2021/01/22 03:17:49;;;;;;;10.75;2.63;;;;;;;;;;5067787;28;20118;-79
2021/01/22 03:20:17;;;;;;;13.68;3.28;;;;;;;;;;5053997;28;20028;-81
2021/01/22 03:22:44;;;;;;;15.88;3.33;;;;;;;;;;5064560;28;20037;-79
2021/01/22 03:25:13;;;;;;;14.45;3.80;;;;;;;;;;5051913;28;20029;-80
2021/01/22 03:27:40;;;;;;;14.35;2.90;;;;;;;;;;5082130;22;20143;-79
2021/01/22 03:30:08;;;;;;;15.38;2.95;;;;;;;;;;5083730;22;20053;-80
2021/01/22 03:32:35;;;;;;;12.55;3.10;;;;;;;;;;5076484;22;20041;-80
2021/01/22 03:35:02;;;;;;;14.77;3.45;;;;;;;;;;5077078;22;20059;-80
2021/01/22 03:37:29;;;;;;;15.07;3.33;;;;;;;;;;5068446;28;20707;-80
2021/01/22 03:39:56;;;;;;;13.00;3.10;;;;;;;;;;5071455;28;20032;-80
2021/01/22 03:42:23;;;;;;;14.18;3.00;;;;;;;;;;5069181;28;20497;-80
2021/01/22 03:44:50;;;;;;;11.88;3.15;;;;;;;;;;5077588;22;20135;-79
2021/01/22 03:47:18;;;;;;;12.65;3.45;;;;;;;;;;5065763;28;20028;-79
2021/01/22 03:49:45;;;;;;;20.25;4.18;;;;;;;;;;5073172;28;20024;-80
2021/01/22 03:52:12;;;;;;;15.43;3.03;;;;;;;;;;5073859;28;20040;-80
2021/01/22 03:54:39;;;;;;;12.38;2.60;;;;;;;;;;5055038;28;20032;-80
2021/01/22 03:57:06;;;;;;;15.60;3.17;;;;;;;;;;5052872;28;20579;-80
2021/01/22 03:59:33;;;;;;;11.93;2.60;;;;;;;;;;5037248;28;20079;-80
2021/01/22 04:02:00;;;;;;;16.60;3.42;;;;;;;;;;5089981;22;20044;-79
2021/01/22 04:04:27;;;;;;;16.20;3.95;;;;;;;;;;5093799;28;20748;-80
2021/01/22 04:06:54;;;;;;;10.73;2.95;;;;;;;;;;5095455;28;20500;-80
2021/01/22 04:09:22;;;;;;;14.90;3.95;;;;;;;;;;5092038;28;20028;-79
2021/01/22 04:11:49;;;;;;;13.10;2.97;;;;;;;;;;5094407;28;20054;-77
2021/01/22 04:14:16;;;;;;;17.52;3.47;;;;;;;;;;5108026;28;20032;-79
2021/01/22 04:16:43;;;;;;;11.85;3.60;;;;;;;;;;5095491;28;20543;-79
2021/01/22 04:19:10;;;;;;;13.43;3.42;;;;;;;;;;5108454;28;20032;-79
2021/01/22 04:21:37;;;;;;;10.10;2.97;;;;;;;;;;5095033;28;20066;-81
2021/01/22 04:24:04;;;;;;;14.20;3.42;;;;;;;;;;5091145;28;20052;-81
2021/01/22 04:26:31;;;;;;;10.55;2.60;;;;;;;;;;5093878;28;20074;-79
2021/01/22 04:28:58;;;;;;;10.18;3.40;;;;;;;;;;5092782;28;20109;-78
2021/01/22 04:31:25;;;;;;;12.70;2.78;;;;;;;;;;5095228;28;20042;-79
2021/01/22 04:33:53;;;;;;;15.57;3.05;;;;;;;;;;5104064;22;20128;-79
2021/01/22 04:36:20;;;;;;;9.48;2.10;;;;;;;;;;5054780;28;20481;-80
2021/01/22 04:38:47;;;;;;;12.00;2.35;;;;;;;;;;5022558;28;20036;-79
2021/01/22 04:41:14;;;;;;;13.65;3.17;;;;;;;;;;5034766;28;20025;-80
2021/01/22 04:43:44;;;;;;;9.13;2.15;;;;;;;;;;5044192;28;20063;-80
2021/01/22 04:46:12;;;;;;;8.70;1.85;;;;;;;;;;5054430;28;20064;-80
2021/01/22 04:48:40;;;;;;;8.70;2.00;;;;;;;;;;5049760;28;20037;-80
2021/01/22 04:51:07;;;;;;;8.55;2.33;;;;;;;;;;5050590;28;20028;-79
2021/01/22 04:53:38;;;;;;;8.30;1.83;;;;;;;;;;5048130;28;20027;-79
2021/01/22 04:56:05;;;;;;;10.43;1.60;;;;;;;;;;5052349;28;20025;-80
2021/01/22 04:58:40;;;;;;;5.93;1.33;;;;;;;;;;5047868;28;20017;-80
2021/01/22 05:01:07;;;;;;;9.38;1.75;;;;;;;;;;5053273;28;20063;-81
2021/01/22 05:03:34;;;;;;;8.65;1.73;;;;;;;;;;5052299;28;20094;-79
2021/01/22 05:06:01;;;;;;;6.35;1.75;;;;;;;;;;5054145;28;20048;-81
2021/01/22 05:08:28;;;;;;;7.43;1.80;;;;;;;;;;5052607;28;20044;-80
2021/01/22 05:10:55;;;;;;;6.97;1.80;;;;;;;;;;5036140;28;20488;-80
2021/01/22 05:13:23;;;;;;;7.70;1.77;;;;;;;;;;5051825;28;20044;-81
2021/01/22 05:16:08;;;;;;;10.48;2.13;;;;;;;;;;5054144;28;20025;-80
2021/01/22 05:18:35;;;;;;;9.13;2.42;;;;;;;;;;5050577;28;20111;-79
2021/01/22 05:21:09;;;;;;;15.55;2.58;;;;;;;;;;5052509;28;20029;-79
2021/01/22 05:23:37;;;;;;;;;;;;;;;;;;5050584;28;20359;-79
2021/01/22 05:26:20;;;;;;;6.82;2.03;;;;;;;;;;5051567;28;20369;-79
2021/01/22 05:28:48;;;;;;;9.55;2.40;;;;;;;;;;5045544;28;20024;-79
2021/01/22 05:31:17;;;;;;;12.68;2.55;;;;;;;;;;5053511;28;20473;-78
2021/01/22 05:33:57;;;;;;;8.38;2.33;;;;;;;;;;5051633;28;20056;-78
2021/01/22 05:36:29;;;;;;;8.80;2.88;;;;;;;;;;5106770;22;20091;-78
2021/01/22 05:38:57;;;;;;;8.05;2.72;;;;;;;;;;5078263;22;20536;-78
2021/01/22 05:41:25;;;;;;;15.80;2.38;;;;;;;;;;5053750;28;20106;-78
2021/01/22 05:43:52;;;;;;;9.13;1.95;;;;;;;;;;5079488;22;20056;-77
2021/01/22 05:46:20;;;;;;;12.50;2.25;;;;;;;;;;5071062;28;20035;-78
2021/01/22 05:48:47;;;;;;;8.98;2.85;;;;;;;;;;5071000;28;20029;-78
2021/01/22 05:51:15;;;;;;;12.10;1.90;;;;;;;;;;5065121;22;20399;-77
2021/01/22 05:53:45;;;;;;;11.23;2.20;;;;;;;;;;5031047;28;20036;-77
2021/01/22 05:56:19;;;;;;;10.70;2.78;;;;;;;;;;5031593;28;20026;-78
2021/01/22 05:58:47;;;;;;;9.35;1.80;;;;;;;;;;5028986;28;20033;-78
2021/01/22 06:01:15;;;;;;;13.07;3.03;;;;;;;;;;5033238;28;20026;-78
2021/01/22 06:03:43;;;;;;;12.48;3.13;;;;;;;;;;5031068;28;20052;-78
2021/01/22 06:06:11;;;;;;;13.70;2.75;;;;;;;;;;5029827;28;20037;-79
2021/01/22 06:08:51;;;;;;;10.45;2.40;;;;;;;;;;5060258;22;20110;-78
2021/01/22 06:11:19;;;;;;;9.45;1.73;;;;;;;;;;5053122;28;20024;-78
2021/01/22 06:13:48;;;;;;;12.50;3.22;;;;;;;;;;5068950;28;20020;-78
2021/01/22 06:16:19;;;;;;;12.60;2.05;;;;;;;;;;5072763;28;20017;-77
2021/01/22 06:18:48;;;;;;;9.40;3.22;;;;;;;;;;5071400;28;20039;-78
2021/01/22 06:21:18;;;;;;;9.10;2.40;;;;;;;;;;5072207;28;20031;-79
2021/01/22 06:23:47;;;;;;;9.55;2.38;;;;;;;;;;5071391;28;20021;-78
2021/01/22 06:26:15;;;;;;;9.70;1.80;;;;;;;;;;5072340;28;20060;-79
2021/01/22 06:28:44;;;;;;;8.43;1.98;;;;;;;;;;5052931;28;20037;-78
2021/01/22 06:31:11;;;;;;;9.95;2.00;;;;;;;;;;5072386;28;20454;-80
2021/01/22 06:33:38;;;;;;;8.65;2.20;;;;;;;;;;5071303;28;20380;-79
2021/01/22 06:36:07;;;;;;;6.43;1.80;;;;;;;;;;5072362;28;20028;-79
2021/01/22 06:38:35;;;;;;;7.68;1.85;;;;;;;;;;5071486;28;20362;-78
2021/01/22 06:41:02;;;;;;;7.55;2.80;;;;;;;;;;5076616;22;20458;-78
2021/01/22 06:43:29;;;;;;;6.63;2.03;;;;;;;;;;5084508;28;20024;-78
2021/01/22 06:46:01;;;;;;;6.15;1.73;;;;;;;;;;5092541;28;20036;-78
2021/01/22 06:48:28;;;;;;;7.53;2.22;;;;;;;;;;5090692;28;20484;-79
2021/01/22 06:51:15;;;;;;;6.55;1.80;;;;;;;;;;5112333;28;20092;-79
2021/01/22 06:54:00;;;;;;;10.70;1.80;;;;;;;;;;5107687;28;20684;-79
2021/01/22 06:56:28;;;;;;;9.15;1.77;;;;;;;;;;5084246;28;20024;-78
2021/01/22 06:58:55;;;;;;;8.25;1.70;;;;;;;;;;5083477;28;20032;-79
2021/01/22 07:01:35;;;;;;;6.82;1.50;;;;;;;;;;5111696;28;20034;-77
2021/01/22 07:04:02;;;;;;;8.07;2.10;;;;;;;;;;5096131;28;20024;-77
2021/01/22 07:06:34;;;;;;;10.80;2.47;;;;;;;;;;5094708;28;20051;-79
2021/01/22 07:09:02;;;;;;;9.77;1.77;;;;;;;;;;5107910;28;20024;-78
2021/01/22 07:11:47;;;;;;;10.27;2.47;;;;;;;;;;5112036;28;20035;-78
2021/01/22 07:14:43;;;;;;;11.00;2.53;;;;;;;;;;5114165;28;20032;-79
2021/01/22 07:17:19;;;;;;;13.45;3.35;;;;;;;;;;5094400;28;20407;-81
2021/01/22 07:20:06;;;;;;;11.45;3.13;;;;;;;;;;5097319;28;20372;-81
2021/01/22 07:22:33;;;;;;;11.27;3.03;;;;;;;;;;5104784;28;20056;-80
2021/01/22 07:25:02;;;;;;;14.10;2.95;;;;;;;;;;5105097;28;20108;-81
2021/01/22 07:27:43;;;;;;;14.00;2.33;;;;;;;;;;5116730;28;20015;-80
2021/01/22 07:30:17;;;;;;;9.98;2.55;;;;;;;;;;5104124;28;20455;-82
2021/01/22 07:32:48;;;;;;;12.93;3.00;;;;;;;;;;5096074;28;20592;-81
2021/01/22 07:35:25;;;;;;;19.98;3.38;;;;;;;;;;5095892;28;20112;-81
2021/01/22 07:37:52;;;;;;;13.30;3.10;;;;;;;;;;5101222;28;20439;-84
2021/01/22 07:40:20;;;;;;;14.75;3.10;;;;;;;;;;5102095;28;20036;-87
2021/01/22 07:42:47;;;;;;;16.80;3.25;;;;;;;;;;5101377;22;20051;-80
2021/01/22 07:45:16;;;;;;;10.25;3.05;;;;;;;;;;5113202;22;20532;-78
2021/01/22 07:47:44;;;;;;;16.85;3.90;;;;;;;;;;5095112;28;20032;-82
2021/01/22 07:50:12;;;;;;;18.25;3.30;;;;;;;;;;5113766;22;20167;-83
2021/01/22 07:52:43;;;;;;;17.58;3.45;;;;;;;;;;5131250;27;20548;-82
2021/01/22 07:55:17;;;;;;;15.75;3.53;;;;;;;;;;5117545;27;20038;-82
2021/01/22 07:57:43;;;;;;;;;;;;;;;;;;5121404;27;20031;-81
2021/01/22 08:00:12;;;;;;;13.80;2.83;;;;;;;;;;5100506;22;19926;-84
2021/01/22 08:02:39;;;;;;;17.92;3.40;;;;;;;;;;5078692;28;20024;-85
2021/01/22 08:05:10;;;;;;;15.95;3.47;;;;;;;;;;5095468;28;20028;-81
2021/01/22 08:07:43;;;;;;;8.75;3.25;;;;;;;;;;5083499;28;20095;-82
2021/01/22 08:10:11;;;;;;;17.20;3.47;;;;;;;;;;5094284;28;20028;-81
2021/01/22 08:12:39;;;;;;;18.42;3.40;;;;;;;;;;5094979;28;20052;-81
2021/01/22 08:15:16;;;;;;;12.18;3.20;;;;;;;;;;5098299;22;20115;-82
2021/01/22 08:17:46;;;;;;;12.27;3.20;;;;;;;;;;5074984;28;20381;-82
2021/01/22 08:20:14;;;;;;;15.43;3.15;;;;;;;;;;5058897;28;20469;-81
2021/01/22 08:22:41;;;;;;;15.43;3.88;;;;;;;;;;5054511;28;20091;-81
2021/01/22 08:25:09;;;;;;;19.20;3.95;;;;;;;;;;5054349;28;20523;-81
2021/01/22 08:27:36;;;;;;;15.25;4.05;;;;;;;;;;5060195;28;20055;-82
2021/01/22 08:30:05;;;;;;;17.80;4.15;;;;;;;;;;5073650;28;20048;-83
2021/01/22 08:32:33;;;;;;;13.68;2.65;;;;;;;;;;5068049;28;20385;-81
2021/01/22 08:35:00;;;;;;;15.35;3.75;;;;;;;;;;5066421;28;20032;-80
2021/01/22 08:37:27;;;;;;;14.68;3.45;;;;;;;;;;5065366;28;20111;-80
2021/01/22 08:39:58;;;;;;;14.02;2.70;;;;;;;;;;5069438;28;20071;-82
2021/01/22 08:42:26;;;;;;;10.90;3.25;;;;;;;;;;5066938;28;20024;-82
2021/01/22 08:44:54;;;;;;;15.43;3.13;;;;;;;;;;5070266;28;20041;-82
2021/01/22 08:47:22;;;;;;;15.88;3.15;;;;;;;;;;5070895;28;20544;-82
2021/01/22 08:49:59;;;;;;;14.65;2.97;;;;;;;;;;5063179;22;20042;-82
2021/01/22 08:52:27;;;;;;;13.15;3.30;;;;;;;;;;5033290;28;20072;-82
2021/01/22 08:54:57;;;;;;;12.15;2.95;;;;;;;;;;5030810;28;20045;-82
2021/01/22 08:57:25;;;;;;;16.40;3.38;;;;;;;;;;5034311;28;20022;-82
2021/01/22 08:59:56;;;;;;;14.40;2.58;;;;;;;;;;5033963;28;20441;-81
2021/01/22 09:02:39;;;;;;;9.70;2.35;;;;;;;;;;5033404;28;20116;-82
2021/01/22 09:05:07;;;;;;;8.57;2.83;;;;;;;;;;5026937;28;20032;-82
2021/01/22 09:07:34;;;;;;;13.38;2.35;;;;;;;;;;5034311;28;20390;-82
2021/01/22 09:10:02;;;;;;;13.48;2.72;;;;;;;;;;5033552;28;20021;-82
2021/01/22 09:12:33;;;;;;;10.00;2.72;;;;;;;;;;5033223;28;20026;-80
2021/01/22 09:15:06;;;;;;;12.43;2.15;;;;;;;;;;5034194;28;20025;-82
2021/01/22 09:17:44;;;;;;;8.50;2.80;;;;;;;;;;5015205;28;20022;-81
2021/01/22 09:20:22;;;;;;;9.50;2.78;;;;;;;;;;5015810;28;20026;-77
2021/01/22 09:22:53;;;;;;;9.25;2.25;;;;;;;;;;5025059;28;20037;-78
2021/01/22 09:25:26;;;;;;;9.27;2.10;;;;;;;;;;5035251;28;20030;-78
2021/01/22 09:27:53;;;;;;;6.40;2.20;;;;;;;;;;5035242;28;20106;-78
2021/01/22 09:30:21;;;;;;;12.35;2.75;;;;;;;;;;5032759;28;20433;-79
2021/01/22 09:32:51;;;;;;;10.48;2.47;;;;;;;;;;5029259;28;20092;-81
2021/01/22 09:35:19;;;;;;;9.77;2.35;;;;;;;;;;5032815;28;20025;-82
2021/01/22 09:37:46;;;;;;;8.43;2.15;;;;;;;;;;5033014;28;20025;-81
2021/01/22 09:40:13;;;;;;;9.68;2.17;;;;;;;;;;5032133;28;20479;-79
2021/01/22 09:42:41;;;;;;;10.30;2.13;;;;;;;;;;5033638;28;20018;-78
2021/01/22 09:45:09;;;;;;;9.63;2.67;;;;;;;;;;5033679;28;20425;-79
2021/01/22 09:47:36;;;;;;;13.13;3.38;;;;;;;;;;5032980;28;20426;-78
2021/01/22 09:50:04;;;;;;;10.80;2.00;;;;;;;;;;5109061;22;20092;-78
2021/01/22 09:52:33;;;;;;;11.00;3.35;;;;;;;;;;5130696;22;20166;-78
2021/01/22 09:55:00;;;;;;;9.25;2.53;;;;;;;;;;5113588;28;20488;-78
2021/01/22 09:57:27;;;;;;;8.95;2.50;;;;;;;;;;5093438;22;20049;-78
2021/01/22 09:59:55;;;;;;;9.95;3.38;;;;;;;;;;5042030;28;20028;-78
2021/01/22 10:02:22;;;;;;;15.25;3.10;;;;;;;;;;5032044;28;20026;-78
2021/01/22 10:04:49;;;;;;;11.38;3.33;;;;;;;;;;5033401;28;20179;-78
2021/01/22 10:07:16;;;;;;;10.02;3.10;;;;;;;;;;5073407;22;20140;-79
2021/01/22 10:09:44;;;;;;;11.60;4.10;;;;;;;;;;5073159;28;20070;-78
2021/01/22 10:12:13;;;;;;;10.50;2.70;;;;;;;;;;5073176;28;20036;-78
2021/01/22 10:14:41;;;;;;;9.20;2.92;;;;;;;;;;5055687;28;20507;-78
2021/01/22 10:17:08;;;;;;;10.85;3.22;;;;;;;;;;5072150;28;20032;-79
2021/01/22 10:19:36;;;;;;;9.55;2.33;;;;;;;;;;5053284;28;20108;-78
2021/01/22 10:22:04;;;;;;;13.05;2.95;;;;;;;;;;5079003;22;20056;-77
2021/01/22 10:24:31;;;;;;;10.60;3.00;;;;;;;;;;5077337;28;20072;-78
2021/01/22 10:26:58;;;;;;;9.50;2.40;;;;;;;;;;5080858;28;20089;-78
2021/01/22 10:29:26;;;;;;;9.27;2.30;;;;;;;;;;5084229;28;20032;-79
2021/01/22 10:31:53;;;;;;;10.35;3.35;;;;;;;;;;5054657;28;20020;-78
2021/01/22 10:34:20;;;;;;;15.35;3.65;;;;;;;;;;5071362;28;20025;-78
2021/01/22 10:36:48;;;;;;;9.25;2.78;;;;;;;;;;5072663;28;20020;-78
2021/01/22 10:39:15;;;;;;;8.25;2.67;;;;;;;;;;5072290;28;20093;-79
2021/01/22 10:41:42;;;;;;;11.70;3.38;;;;;;;;;;5058630;28;20036;-78
2021/01/22 10:44:09;;;;;;;9.70;3.15;;;;;;;;;;5071027;28;20669;-78
2021/01/22 10:46:36;;;;;;;12.15;3.00;;;;;;;;;;5072215;28;20025;-78
2021/01/22 10:49:03;;;;;;;8.85;2.70;;;;;;;;;;5072799;28;20107;-79
2021/01/22 10:51:31;;;;;;;14.68;2.85;;;;;;;;;;5072946;28;20081;-78
2021/01/22 10:53:58;;;;;;;7.13;2.78;;;;;;;;;;5051681;28;20029;-78
2021/01/22 10:56:25;;;;;;;9.02;2.38;;;;;;;;;;5073093;22;20516;-78
2021/01/22 10:58:52;;;;;;;8.68;3.03;;;;;;;;;;5061913;28;20043;-78
2021/01/22 11:01:20;;;;;;;10.57;2.90;;;;;;;;;;5034459;28;20070;-78
2021/01/22 11:03:47;;;;;;;12.30;3.13;;;;;;;;;;5033223;28;20124;-79
2021/01/22 11:06:14;;;;;;;12.25;3.08;;;;;;;;;;5025215;28;20037;-79
2021/01/22 11:08:41;;;;;;;13.68;3.13;;;;;;;;;;5024508;28;20141;-79
2021/01/22 11:11:09;;;;;;;11.82;3.83;;;;;;;;;;5029743;28;20022;-79
2021/01/22 11:13:36;;;;;;;10.43;3.42;;;;;;;;;;5024743;28;20014;-78
2021/01/22 11:16:03;;;;;;;20.33;4.05;;;;;;;;;;4998286;28;20104;-78
2021/01/22 11:18:30;;;;;;;10.15;2.75;;;;;;;;;;5020658;28;20083;-78
2021/01/22 11:20:57;;;;;;;10.48;2.78;;;;;;;;;;5027051;28;20029;-78
2021/01/22 11:23:24;;;;;;;16.80;3.42;;;;;;;;;;5023467;28;20037;-78
2021/01/22 11:25:51;;;;;;;11.48;2.90;;;;;;;;;;5027844;28;20055;-79
2021/01/22 11:28:18;;;;;;;10.75;3.08;;;;;;;;;;5023664;28;20075;-79
2021/01/22 11:30:45;;;;;;;10.38;2.67;;;;;;;;;;5028394;28;20033;-78
2021/01/22 11:33:12;;;;;;;10.35;2.67;;;;;;;;;;5014669;28;20056;-78
2021/01/22 11:35:40;;;;;;;10.63;2.80;;;;;;;;;;5018318;28;20040;-78
2021/01/22 11:38:07;;;;;;;12.88;2.85;;;;;;;;;;5024396;28;20501;-78
2021/01/22 11:40:34;;;;;;;13.18;2.58;;;;;;;;;;5027968;28;20069;-79
2021/01/22 11:43:01;;;;;;;17.02;3.20;;;;;;;;;;5029564;28;20083;-78
2021/01/22 11:45:28;;;;;;;10.38;2.55;;;;;;;;;;5029133;28;20069;-79
2021/01/22 11:47:55;;;;;;;11.57;2.92;;;;;;;;;;5024701;28;20022;-79
2021/01/22 11:50:22;;;;;;;10.80;2.80;;;;;;;;;;5026637;28;20033;-79
2021/01/22 11:52:49;;;;;;;10.95;2.72;;;;;;;;;;5012344;28;20557;-78
2021/01/22 11:55:16;;;;;;;9.82;2.80;;;;;;;;;;5026896;28;20024;-78
2021/01/22 11:57:45;;;;;;;9.93;3.25;;;;;;;;;;5069219;22;20056;-78
2021/01/22 12:00:12;;;;;;;13.50;3.33;;;;;;;;;;5097344;22;20462;-78
2021/01/22 12:02:39;;;;;;;10.50;3.05;;;;;;;;;;5051563;28;20057;-79
2021/01/22 12:05:06;;;;;;;14.88;3.47;;;;;;;;;;5078363;22;20061;-79
2021/01/22 12:07:33;;;;;;;9.07;2.90;;;;;;;;;;5038565;28;20017;-79
2021/01/22 12:10:00;;;;;;;9.68;3.15;;;;;;;;;;5047989;28;20435;-79
2021/01/22 12:12:28;;;;;;;13.70;4.18;;;;;;;;;;5052071;28;20029;-79
2021/01/22 12:14:56;;;;;;;17.67;3.83;;;;;;;;;;5067297;22;20106;-79
2021/01/22 12:17:23;;;;;;;10.65;3.83;;;;;;;;;;5046670;28;20025;-79
2021/01/22 12:19:50;;;;;;;15.77;3.60;;;;;;;;;;5054844;28;20025;-78
2021/01/22 12:22:17;;;;;;;14.55;3.72;;;;;;;;;;5042121;28;20025;-79
2021/01/22 12:24:44;;;;;;;11.13;3.47;;;;;;;;;;5053985;28;20033;-79
2021/01/22 12:27:11;;;;;;;15.32;3.58;;;;;;;;;;5053553;28;20033;-79
2021/01/22 12:29:38;;;;;;;17.15;4.93;;;;;;;;;;5072151;22;20392;-78
2021/01/22 12:32:06;;;;;;;12.18;3.88;;;;;;;;;;5073123;28;20029;-79
2021/01/22 12:34:33;;;;;;;21.73;4.43;;;;;;;;;;5072733;28;20031;-78
2021/01/22 12:37:00;;;;;;;11.50;3.53;;;;;;;;;;5057700;28;20082;-79
2021/01/22 12:39:27;;;;;;;14.98;4.28;;;;;;;;;;5071323;28;20027;-79
2021/01/22 12:41:54;;;;;;;13.10;3.42;;;;;;;;;;5061832;28;20112;-79
2021/01/22 12:44:21;;;;;;;16.00;5.32;;;;;;;;;;5081140;28;20043;-79
2021/01/22 12:46:48;;;;;;;20.02;4.43;;;;;;;;;;5067162;28;20499;-79
2021/01/22 12:49:15;;;;;;;18.90;5.20;;;;;;;;;;5072028;28;20021;-79
2021/01/22 12:51:42;;;;;;;12.60;3.47;;;;;;;;;;5062045;28;20021;-78
2021/01/22 12:54:09;;;;;;;18.13;4.13;;;;;;;;;;5070970;28;20115;-79
2021/01/22 12:56:36;;;;;;;19.70;4.90;;;;;;;;;;5070880;28;20078;-79
2021/01/22 12:59:04;;;;;;;21.63;5.70;;;;;;;;;;5069142;28;20035;-79
2021/01/22 13:01:31;;;;;;;13.75;4.35;;;;;;;;;;5067274;28;20529;-79
2021/01/22 13:03:58;;;;;;;18.67;4.20;;;;;;;;;;5092841;22;20129;-79
2021/01/22 13:06:25;;;;;;;16.88;4.45;;;;;;;;;;5093350;28;20119;-79
2021/01/22 13:08:52;;;;;;;18.42;4.25;;;;;;;;;;5086893;28;20107;-79
2021/01/22 13:11:19;;;;;;;13.07;4.35;;;;;;;;;;5056702;28;20029;-78
2021/01/22 13:13:46;;;;;;;18.25;4.32;;;;;;;;;;5070198;28;20032;-79
2021/01/22 13:16:13;;;;;;;14.13;4.28;;;;;;;;;;5073290;28;20052;-79
2021/01/22 13:18:40;;;;;;;11.05;3.75;;;;;;;;;;5060837;28;20103;-79
2021/01/22 13:21:07;;;;;;;14.40;3.45;;;;;;;;;;5069373;28;20025;-79
2021/01/22 13:23:35;;;;;;;13.73;4.13;;;;;;;;;;5041397;28;20032;-79
2021/01/22 13:26:02;;;;;;;16.10;4.28;;;;;;;;;;5066829;28;20044;-79
2021/01/22 13:28:29;;;;;;;16.98;4.05;;;;;;;;;;5069865;28;20036;-79
2021/01/22 13:30:56;;;;;;;17.50;3.97;;;;;;;;;;5038544;28;20029;-79
2021/01/22 13:33:23;;;;;;;12.32;3.50;;;;;;;;;;5061943;28;20055;-79
2021/01/22 13:35:50;;;;;;;14.68;4.22;;;;;;;;;;5068724;28;20025;-79
2021/01/22 13:38:17;;;;;;;17.63;4.28;;;;;;;;;;5063739;28;20091;-79
2021/01/22 13:40:45;;;;;;;16.38;4.05;;;;;;;;;;5059408;28;20042;-79
2021/01/22 13:43:12;;;;;;;13.60;3.83;;;;;;;;;;5068499;28;20031;-79
2021/01/22 13:45:39;;;;;;;13.68;4.10;;;;;;;;;;5071538;28;20086;-79
2021/01/22 13:48:06;;;;;;;18.17;4.35;;;;;;;;;;5071069;28;20025;-79
2021/01/22 13:50:33;;;;;;;13.32;4.07;;;;;;;;;;5061657;28;20075;-79
2021/01/22 13:53:01;;;;;;;16.30;4.45;;;;;;;;;;5046881;28;20021;-80
2021/01/22 13:55:28;;;;;;;17.20;3.78;;;;;;;;;;5068463;28;20397;-79
2021/01/22 13:57:55;;;;;;;22.30;4.00;;;;;;;;;;5070772;28;20107;-79
2021/01/22 14:00:22;;;;;;;15.73;3.90;;;;;;;;;;5061664;28;20135;-80
2021/01/22 14:02:50;;;;;;;14.55;4.18;;;;;;;;;;5063748;28;20021;-80
2021/01/22 14:05:17;;;;;;;17.45;4.43;;;;;;;;;;5111572;22;20150;-79
2021/01/22 14:07:44;;;;;;;17.58;4.43;;;;;;;;;;5044543;23;20667;-79
2021/01/22 14:10:12;;;;;;;16.23;5.35;;;;;;;;;;5062379;28;20029;-79
2021/01/22 14:12:39;;;;;;;16.65;4.13;;;;;;;;;;5066039;22;20079;-79
2021/01/22 14:15:06;;;;;;;16.85;4.30;;;;;;;;;;5071267;28;20067;-79
2021/01/22 14:17:34;;;;;;;15.88;4.53;;;;;;;;;;5070569;28;20020;-80
2021/01/22 14:20:01;;;;;;;14.70;4.90;;;;;;;;;;5086104;28;20031;-80
2021/01/22 14:22:28;;;;;;;14.55;4.22;;;;;;;;;;5101060;22;20056;-80
2021/01/22 14:24:55;;;;;;;15.95;5.18;;;;;;;;;;5072267;28;20507;-79
2021/01/22 14:27:22;;;;;;;17.33;4.40;;;;;;;;;;5085730;28;20032;-80
2021/01/22 14:29:49;;;;;;;19.13;4.93;;;;;;;;;;5072156;28;20020;-79
2021/01/22 14:32:17;;;;;;;18.60;5.07;;;;;;;;;;5068529;28;20032;-79
2021/01/22 14:34:44;;;;;;;19.58;4.22;;;;;;;;;;5070493;28;20051;-79
2021/01/22 14:39:37;;;;;;;17.13;5.15;;;;;;;;;;5083185;22;20051;-80
2021/01/22 14:42:07;;;;;;;16.05;3.97;;;;;;;;;;5050609;28;20025;-79
2021/01/22 14:44:34;;;;;;;13.35;3.65;;;;;;;;;;5054205;28;20017;-80